Time;durP1;ratioP1;P1;durP2;ratioP2;P2;SDS_P1;SDS_P2;PMS_P1;PMS_P2;Temp;Humidity;BMP_temperature;BMP_pressure;BME280_temperature;BME280_humidity;BME280_pressure;Samples;Min_cycle;Max_cycle;Signal;HPM_P1;HPM_P2
2023/03/28 00:00:58;;;;;;;0.60;0.50;;;0.00;99.90;;;;;;5108267;28;20743;-74
2023/03/28 00:03:27;;;;;;;0.50;0.50;;;-0.10;99.90;;;;;;5105288;28;20683;-75
2023/03/28 00:05:59;;;;;;;0.60;0.60;;;-0.20;99.90;;;;;;5104862;28;20710;-77
2023/03/28 00:08:27;;;;;;;0.95;0.73;;;-0.20;99.90;;;;;;5093076;28;20237;-75
2023/03/28 00:11:02;;;;;;;0.50;0.45;;;-0.10;99.90;;;;;;5099256;28;20281;-75
2023/03/28 00:13:30;;;;;;;0.90;0.50;;;0.00;99.90;;;;;;5106527;28;20260;-75
2023/03/28 00:16:03;;;;;;;0.60;0.50;;;-0.10;99.90;;;;;;5090279;28;20202;-73
2023/03/28 00:18:31;;;;;;;0.70;0.50;;;-0.10;99.90;;;;;;5092626;28;20210;-75
2023/03/28 00:20:58;;;;;;;1.00;0.50;;;-0.10;99.90;;;;;;5086704;28;20201;-75
2023/03/28 00:23:27;;;;;;;0.60;0.55;;;-0.10;99.90;;;;;;5100608;28;21034;-75
2023/03/28 00:25:55;;;;;;;0.63;0.55;;;0.00;99.90;;;;;;5103000;28;20551;-76
2023/03/28 00:28:22;;;;;;;1.52;0.40;;;0.00;99.90;;;;;;5103255;28;20192;-75
2023/03/28 00:30:50;;;;;;;0.60;0.50;;;0.00;99.90;;;;;;5097889;28;20205;-75
2023/03/28 00:33:17;;;;;;;0.47;0.40;;;-0.10;99.90;;;;;;5103974;28;20630;-75
2023/03/28 00:35:44;;;;;;;1.95;0.60;;;-0.20;99.90;;;;;;5100047;28;20802;-75
2023/03/28 00:38:12;;;;;;;0.50;0.47;;;-0.20;99.90;;;;;;5101449;28;20204;-77
2023/03/28 00:40:40;;;;;;;0.70;0.60;;;-0.30;99.90;;;;;;5103914;28;20290;-75
2023/03/28 00:43:13;;;;;;;2.17;0.50;;;-0.30;99.90;;;;;;5099347;28;20200;-75
2023/03/28 00:45:41;;;;;;;3.75;0.80;;;-0.30;99.90;;;;;;5104343;28;20549;-74
2023/03/28 00:48:14;;;;;;;0.70;0.70;;;-0.20;99.90;;;;;;5099647;28;20201;-74
2023/03/28 00:50:45;;;;;;;0.90;0.82;;;-0.30;99.90;;;;;;5100097;28;20898;-76
2023/03/28 00:53:16;;;;;;;0.80;0.68;;;-0.30;99.90;;;;;;5099148;28;20200;-74
2023/03/28 00:55:47;;;;;;;0.80;0.50;;;-0.30;99.90;;;;;;5107090;28;20674;-75
2023/03/28 00:58:17;;;;;;;1.90;0.93;;;-0.30;99.90;;;;;;5093067;28;20257;-75
2023/03/28 01:00:46;;;;;;;1.20;1.10;;;-0.30;99.90;;;;;;5097112;28;20619;-74
2023/03/28 01:03:15;;;;;;;2.05;1.25;;;-0.40;99.90;;;;;;5089107;28;20703;-74
2023/03/28 01:05:43;;;;;;;1.75;1.23;;;-0.40;99.90;;;;;;5098609;28;20269;-75
2023/03/28 01:08:15;;;;;;;1.92;1.63;;;-0.30;99.90;;;;;;5104038;28;20238;-75
2023/03/28 01:10:44;;;;;;;5.00;2.15;;;-0.30;99.90;;;;;;5102371;28;20193;-74
2023/03/28 01:13:14;;;;;;;1.58;1.38;;;-0.30;99.90;;;;;;5106251;28;20211;-74
2023/03/28 01:15:41;;;;;;;3.15;2.85;;;-0.30;99.90;;;;;;5101234;28;20248;-77
2023/03/28 01:18:10;;;;;;;3.47;3.15;;;-0.20;99.90;;;;;;5099468;28;20201;-76
2023/03/28 01:21:05;;;;;;;3.72;2.58;;;-0.30;99.90;;;;;;5103800;28;20209;-77
2023/03/28 01:23:55;;;;;;;5.78;3.65;;;-0.30;99.90;;;;;;5099091;28;20269;-74
2023/03/28 01:26:49;;;;;;;3.70;3.33;;;-0.30;99.90;;;;;;5103434;28;20597;-74
2023/03/28 01:30:01;;;;;;;4.90;2.83;;;-0.30;99.90;;;;;;5095655;28;20193;-74
2023/03/28 01:33:02;;;;;;;3.58;3.10;;;-0.30;99.90;;;;;;5095942;28;20286;-75
2023/03/28 01:36:18;;;;;;;5.30;4.13;;;-0.40;99.90;;;;;;5088956;28;20228;-77
2023/03/28 01:38:54;;;;;;;6.93;4.30;;;-0.40;99.90;;;;;;5086044;28;20219;-74
2023/03/28 01:41:27;;;;;;;5.68;4.05;;;-0.40;99.90;;;;;;5099055;28;20197;-75
2023/03/28 01:44:03;;;;;;;6.15;2.88;;;-0.40;99.90;;;;;;5106815;28;20200;-75
2023/03/28 01:46:36;;;;;;;6.30;3.70;;;-0.30;99.90;;;;;;5093964;28;20243;-74
2023/03/28 01:49:09;;;;;;;7.15;5.03;;;-0.30;99.90;;;;;;5101410;28;20205;-75
2023/03/28 01:51:46;;;;;;;6.10;5.50;;;-0.30;99.90;;;;;;5095984;28;20196;-75
2023/03/28 01:54:25;;;;;;;6.07;4.30;;;-0.30;99.90;;;;;;5089606;28;20606;-73
2023/03/28 01:56:57;;;;;;;6.25;3.50;;;-0.40;99.90;;;;;;5104682;28;20196;-75
2023/03/28 01:59:30;;;;;;;8.25;4.80;;;-0.40;99.90;;;;;;5090288;28;20673;-75
2023/03/28 02:02:03;;;;;;;7.20;4.28;;;-0.50;99.90;;;;;;5105120;28;20193;-75
2023/03/28 02:04:32;;;;;;;9.70;4.55;;;-0.50;99.90;;;;;;5103947;28;20205;-75
2023/03/28 02:07:01;;;;;;;5.28;3.72;;;-0.50;99.90;;;;;;5095036;28;20204;-75
2023/03/28 02:09:31;;;;;;;9.23;5.32;;;-0.60;99.90;;;;;;5089325;28;20205;-75
2023/03/28 02:12:02;;;;;;;5.88;4.68;;;-0.60;99.90;;;;;;5106351;28;20810;-74
2023/03/28 02:14:36;;;;;;;10.43;5.32;;;-0.50;99.90;;;;;;5106137;28;20232;-75
2023/03/28 02:17:08;;;;;;;8.50;5.97;;;-0.50;99.90;;;;;;5103526;28;20224;-74
2023/03/28 02:19:37;;;;;;;7.93;5.35;;;-0.50;99.90;;;;;;5106403;28;20215;-78
2023/03/28 02:22:15;;;;;;;9.60;5.32;;;-0.40;99.90;;;;;;5107057;28;20320;-74
2023/03/28 02:24:49;;;;;;;7.43;4.95;;;-0.40;99.90;;;;;;5105885;28;20299;-75
2023/03/28 02:27:16;;;;;;;8.98;6.47;;;-0.30;99.90;;;;;;5102133;28;20616;-76
2023/03/28 02:29:43;;;;;;;6.90;5.25;;;-0.30;99.90;;;;;;5101516;28;20246;-75
2023/03/28 02:32:10;;;;;;;6.63;5.82;;;-0.20;99.90;;;;;;5108697;28;20254;-74
2023/03/28 02:34:37;;;;;;;5.38;4.13;;;-0.20;99.90;;;;;;5106881;28;20225;-77
2023/03/28 02:37:12;;;;;;;6.57;4.80;;;-0.10;99.90;;;;;;5110957;28;20201;-75
2023/03/28 02:39:57;;;;;;;6.25;4.40;;;-0.20;99.90;;;;;;5109851;28;20196;-75
2023/03/28 02:43:15;;;;;;;6.60;4.00;;;-0.10;99.90;;;;;;5119828;27;20209;-74
2023/03/28 02:46:07;;;;;;;4.68;3.47;;;0.00;99.90;;;;;;5059239;28;20649;-75
2023/03/28 02:48:50;;;;;;;5.93;3.28;;;0.00;99.90;;;;;;5086952;28;20921;-75
2023/03/28 02:51:28;;;;;;;6.18;3.80;;;0.10;99.90;;;;;;5100906;28;20201;-76
2023/03/28 02:54:02;;;;;;;4.18;3.08;;;0.00;99.90;;;;;;5095798;28;20845;-74
2023/03/28 02:56:40;;;;;;;5.22;4.20;;;0.00;99.90;;;;;;5092504;28;20313;-75
2023/03/28 02:59:11;;;;;;;5.10;3.63;;;0.00;99.90;;;;;;5098467;28;20197;-77
2023/03/28 03:01:39;;;;;;;9.20;4.32;;;0.00;99.90;;;;;;5090005;28;20201;-75
2023/03/28 03:04:07;;;;;;;4.57;3.92;;;-0.10;99.90;;;;;;5102073;28;20197;-74
2023/03/28 03:06:35;;;;;;;4.18;3.70;;;-0.10;99.90;;;;;;5087964;28;20766;-74
2023/03/28 03:09:03;;;;;;;6.00;3.22;;;-0.10;99.90;;;;;;5092159;28;20653;-74
2023/03/28 03:11:31;;;;;;;4.75;3.50;;;-0.10;99.90;;;;;;5096116;28;20816;-75
2023/03/28 03:13:59;;;;;;;3.97;3.58;;;-0.10;99.90;;;;;;5089568;28;20611;-75
2023/03/28 03:16:27;;;;;;;3.30;3.00;;;-0.20;99.90;;;;;;5095625;28;20232;-75
2023/03/28 03:18:55;;;;;;;6.28;3.70;;;-0.10;99.90;;;;;;5093895;28;20216;-75
2023/03/28 03:21:24;;;;;;;4.07;3.50;;;-0.10;99.90;;;;;;5093243;28;20198;-75
2023/03/28 03:23:51;;;;;;;8.13;4.78;;;-0.10;99.90;;;;;;5107271;28;20200;-74
2023/03/28 03:26:18;;;;;;;3.08;2.85;;;0.00;99.90;;;;;;5099457;28;20277;-75
2023/03/28 03:28:48;;;;;;;4.90;3.42;;;0.10;99.90;;;;;;5104988;28;20312;-74
2023/03/28 03:31:16;;;;;;;3.92;3.13;;;0.20;99.90;;;;;;5100420;28;20200;-75
2023/03/28 03:33:43;;;;;;;3.65;3.05;;;0.20;99.90;;;;;;5110057;28;20698;-75
2023/03/28 03:36:11;;;;;;;3.13;2.58;;;0.10;99.90;;;;;;5109037;28;20322;-76
2023/03/28 03:38:38;;;;;;;3.08;2.17;;;0.10;99.90;;;;;;5092753;28;20197;-76
2023/03/28 03:41:06;;;;;;;6.15;2.95;;;0.00;99.90;;;;;;5095871;28;20205;-77
2023/03/28 03:43:33;;;;;;;2.38;2.17;;;0.10;99.90;;;;;;5103266;28;20249;-76
2023/03/28 03:46:01;;;;;;;4.13;2.00;;;0.10;99.90;;;;;;5098470;28;20210;-76
2023/03/28 03:48:28;;;;;;;3.17;2.90;;;0.10;99.90;;;;;;5108349;28;20276;-75
2023/03/28 03:50:55;;;;;;;3.75;3.28;;;0.10;99.90;;;;;;5105978;28;20208;-76
2023/03/28 03:53:22;;;;;;;8.20;3.42;;;0.10;99.90;;;;;;5108286;28;20216;-75
2023/03/28 03:55:49;;;;;;;3.78;2.47;;;0.00;99.90;;;;;;5101609;28;20220;-76
2023/03/28 03:58:17;;;;;;;2.17;2.05;;;-0.10;99.90;;;;;;5106660;28;20261;-75
2023/03/28 04:00:47;;;;;;;2.88;2.03;;;0.00;99.90;;;;;;5103143;28;20196;-75
2023/03/28 04:03:16;;;;;;;3.25;2.72;;;-0.10;99.90;;;;;;5104693;28;20204;-75
2023/03/28 04:05:43;;;;;;;4.57;2.80;;;-0.10;99.90;;;;;;5099026;28;20775;-75
2023/03/28 04:08:10;;;;;;;2.90;2.30;;;0.00;99.90;;;;;;5105282;28;20205;-75
2023/03/28 04:10:37;;;;;;;3.95;3.20;;;0.00;99.90;;;;;;5108579;28;20209;-77
2023/03/28 04:13:04;;;;;;;2.63;2.30;;;0.00;99.90;;;;;;5105561;28;20249;-76
2023/03/28 04:15:31;;;;;;;1.92;1.50;;;0.00;99.90;;;;;;5105771;28;20293;-75
2023/03/28 04:17:58;;;;;;;3.70;2.47;;;0.00;99.90;;;;;;5103071;28;20196;-75
2023/03/28 04:20:30;;;;;;;2.67;2.47;;;-0.10;99.90;;;;;;5097378;28;20200;-75
2023/03/28 04:22:59;;;;;;;4.10;2.90;;;-0.10;99.90;;;;;;5104965;28;20193;-77
2023/03/28 04:25:28;;;;;;;4.32;2.40;;;-0.10;99.90;;;;;;5100455;28;20289;-76
2023/03/28 04:27:55;;;;;;;5.43;3.30;;;-0.10;99.90;;;;;;5099878;28;20224;-76
2023/03/28 04:30:24;;;;;;;3.75;2.53;;;-0.10;99.90;;;;;;5099060;28;20277;-76
2023/03/28 04:32:53;;;;;;;4.20;2.30;;;-0.10;99.90;;;;;;5097221;28;20225;-76
2023/03/28 04:35:20;;;;;;;5.18;2.35;;;0.00;99.90;;;;;;5100786;28;20229;-78
2023/03/28 04:37:48;;;;;;;1.95;1.80;;;0.00;99.90;;;;;;5101049;28;20205;-75
2023/03/28 04:40:16;;;;;;;4.82;3.65;;;0.00;99.90;;;;;;5103868;28;20201;-75
2023/03/28 04:42:43;;;;;;;3.73;1.90;;;0.10;99.90;;;;;;5100272;28;20595;-75
2023/03/28 04:45:11;;;;;;;2.80;1.80;;;0.10;99.90;;;;;;5105041;28;20459;-75
2023/03/28 04:47:38;;;;;;;2.20;2.00;;;0.10;99.90;;;;;;5100104;28;20714;-75
2023/03/28 04:50:07;;;;;;;2.10;1.67;;;0.10;99.90;;;;;;5103377;28;20292;-75
2023/03/28 04:52:35;;;;;;;5.45;3.15;;;0.10;99.90;;;;;;5099715;28;20201;-75
2023/03/28 04:55:03;;;;;;;1.63;1.52;;;0.10;99.90;;;;;;5102670;28;20257;-75
2023/03/28 04:57:30;;;;;;;2.28;1.55;;;0.10;99.90;;;;;;5094205;28;20201;-74
2023/03/28 04:59:57;;;;;;;2.25;1.30;;;0.10;99.90;;;;;;5097819;28;20201;-75
2023/03/28 05:02:24;;;;;;;3.55;1.88;;;0.10;99.90;;;;;;5097631;28;20595;-73
2023/03/28 05:04:52;;;;;;;3.72;2.00;;;0.10;99.90;;;;;;5097328;28;20262;-74
2023/03/28 05:07:19;;;;;;;2.15;1.88;;;0.20;99.90;;;;;;5102938;28;20208;-74
2023/03/28 05:09:46;;;;;;;2.05;1.88;;;0.30;99.90;;;;;;5095668;28;20677;-74
2023/03/28 05:12:15;;;;;;;6.60;2.03;;;0.20;99.90;;;;;;5102414;28;20257;-76
2023/03/28 05:14:42;;;;;;;2.97;1.30;;;0.30;99.90;;;;;;5100728;28;20205;-78
2023/03/28 05:17:09;;;;;;;3.00;2.33;;;0.30;99.90;;;;;;5094445;28;20217;-74
2023/03/28 05:19:36;;;;;;;1.80;1.70;;;0.40;99.90;;;;;;5102801;28;20208;-75
2023/03/28 05:22:03;;;;;;;3.47;2.33;;;0.40;99.90;;;;;;5105769;28;20201;-74
2023/03/28 05:24:30;;;;;;;1.48;1.35;;;0.50;99.90;;;;;;5103941;28;20246;-76
2023/03/28 05:26:56;;;;;;;2.75;2.05;;;0.50;99.90;;;;;;5107637;28;20236;-77
2023/03/28 05:29:25;;;;;;;3.83;2.25;;;0.50;99.90;;;;;;5112118;28;20220;-73
2023/03/28 05:31:52;;;;;;;2.80;2.08;;;0.50;99.90;;;;;;5125274;28;20392;-74
2023/03/28 05:34:20;;;;;;;4.63;1.77;;;0.50;99.90;;;;;;5110799;28;20230;-74
2023/03/28 05:36:47;;;;;;;2.45;1.50;;;0.50;99.90;;;;;;5108533;28;20596;-74
2023/03/28 05:39:14;;;;;;;2.03;1.73;;;0.50;99.90;;;;;;5096631;28;20223;-74
2023/03/28 05:41:41;;;;;;;4.95;1.63;;;0.60;99.90;;;;;;5101141;28;20478;-74
2023/03/28 05:44:08;;;;;;;1.83;1.55;;;0.60;99.90;;;;;;5096092;28;20246;-74
2023/03/28 05:46:36;;;;;;;3.50;1.77;;;0.60;99.90;;;;;;5098785;28;20273;-79
2023/03/28 05:49:03;;;;;;;1.70;1.20;;;0.60;99.90;;;;;;5093508;28;20208;-76
2023/03/28 05:51:30;;;;;;;6.30;2.17;;;0.70;99.90;;;;;;5093801;28;20792;-76
2023/03/28 05:53:57;;;;;;;3.23;2.20;;;0.70;99.90;;;;;;5088107;28;20252;-79
2023/03/28 05:56:24;;;;;;;6.40;2.77;;;0.70;99.90;;;;;;5100879;28;20554;-77
2023/03/28 05:58:51;;;;;;;2.25;1.73;;;0.70;99.90;;;;;;5104206;28;20457;-77
2023/03/28 06:01:22;;;;;;;2.60;2.13;;;0.70;99.90;;;;;;5097503;28;20673;-77
2023/03/28 06:03:51;;;;;;;2.30;2.07;;;0.70;99.90;;;;;;5105897;28;20449;-78
2023/03/28 06:06:19;;;;;;;1.42;1.33;;;0.70;99.90;;;;;;5106150;28;20451;-78
2023/03/28 06:08:46;;;;;;;3.03;1.30;;;0.80;99.90;;;;;;5105848;28;20790;-77
2023/03/28 06:11:13;;;;;;;1.33;1.20;;;0.90;99.90;;;;;;5103833;28;20269;-79
2023/03/28 06:13:40;;;;;;;1.60;1.50;;;0.90;99.90;;;;;;5107055;28;20209;-79
2023/03/28 06:16:07;;;;;;;1.30;1.20;;;1.00;99.90;;;;;;5106030;28;20633;-79
2023/03/28 06:18:34;;;;;;;3.78;1.63;;;1.00;99.90;;;;;;5102895;28;20504;-78
2023/03/28 06:21:03;;;;;;;3.00;2.27;;;1.00;99.90;;;;;;5099302;28;20758;-78
2023/03/28 06:23:30;;;;;;;1.20;1.10;;;1.00;99.90;;;;;;5099072;28;20459;-79
2023/03/28 06:25:57;;;;;;;1.30;1.00;;;1.00;99.90;;;;;;5104327;28;20232;-78
2023/03/28 06:28:24;;;;;;;1.55;0.80;;;1.00;99.90;;;;;;5102291;28;20727;-77
2023/03/28 06:30:51;;;;;;;3.20;1.33;;;1.10;99.90;;;;;;5098582;28;20200;-76
2023/03/28 06:33:18;;;;;;;4.28;0.80;;;1.20;99.90;;;;;;5099531;28;20251;-77
2023/03/28 06:35:45;;;;;;;3.87;1.10;;;1.20;99.90;;;;;;5103390;28;20209;-78
2023/03/28 06:38:13;;;;;;;2.25;1.10;;;1.20;99.90;;;;;;5100438;28;20458;-77
2023/03/28 06:40:40;;;;;;;1.23;1.13;;;1.10;99.90;;;;;;5094012;28;20201;-78
2023/03/28 06:43:07;;;;;;;4.93;1.45;;;1.10;99.90;;;;;;5096822;28;20209;-77
2023/03/28 06:45:34;;;;;;;2.90;0.80;;;1.10;99.90;;;;;;5102242;28;20197;-78
2023/03/28 06:48:01;;;;;;;2.17;0.80;;;1.20;99.90;;;;;;5101600;28;20377;-76
2023/03/28 06:50:28;;;;;;;3.30;0.90;;;1.10;99.90;;;;;;5096957;28;20860;-77
2023/03/28 06:52:55;;;;;;;1.05;0.82;;;1.20;99.90;;;;;;5104563;28;20653;-77
2023/03/28 06:55:23;;;;;;;1.92;1.10;;;1.20;99.90;;;;;;5096763;28;20197;-78
2023/03/28 06:57:50;;;;;;;1.77;0.80;;;1.30;99.90;;;;;;5109893;28;20224;-78
2023/03/28 07:00:18;;;;;;;8.80;2.50;;;1.30;99.90;;;;;;5103425;28;20505;-78
2023/03/28 07:02:45;;;;;;;1.70;0.70;;;1.30;99.90;;;;;;5107658;28;20461;-77
2023/03/28 07:05:11;;;;;;;2.20;1.10;;;1.20;99.90;;;;;;5108920;28;20443;-77
2023/03/28 07:07:38;;;;;;;1.67;0.77;;;1.40;99.90;;;;;;5102331;28;20512;-77
2023/03/28 07:10:07;;;;;;;2.00;1.00;;;1.60;99.90;;;;;;5099641;28;21091;-78
2023/03/28 07:12:35;;;;;;;1.00;0.77;;;1.90;99.90;;;;;;5105934;28;20511;-79
2023/03/28 07:15:02;;;;;;;3.87;0.80;;;2.00;99.90;;;;;;5105137;28;20458;-78
2023/03/28 07:17:29;;;;;;;5.00;1.30;;;1.90;99.90;;;;;;5100408;28;21044;-78
2023/03/28 07:19:56;;;;;;;0.90;0.80;;;1.70;99.90;;;;;;5102379;28;21122;-78
2023/03/28 07:22:23;;;;;;;1.00;0.90;;;1.60;99.90;;;;;;5109736;28;20495;-78
2023/03/28 07:24:50;;;;;;;1.57;0.67;;;1.40;99.90;;;;;;5109866;28;20462;-77
2023/03/28 07:27:17;;;;;;;2.70;0.80;;;1.50;99.90;;;;;;5100568;28;20479;-77
2023/03/28 07:29:46;;;;;;;1.53;0.77;;;1.70;99.90;;;;;;5101439;28;20458;-78
2023/03/28 07:32:13;;;;;;;1.13;0.67;;;1.90;99.90;;;;;;5092667;28;20532;-79
2023/03/28 07:34:40;;;;;;;0.70;0.60;;;1.80;99.90;;;;;;5108671;28;20462;-78
2023/03/28 07:37:08;;;;;;;3.40;0.83;;;1.70;99.90;;;;;;5107094;28;21071;-79
2023/03/28 07:39:38;;;;;;;3.20;0.60;;;1.90;99.90;;;;;;5102071;28;20831;-78
2023/03/28 07:42:07;;;;;;;2.30;0.70;;;2.10;99.90;;;;;;5100982;28;20457;-79
2023/03/28 07:44:34;;;;;;;1.43;0.60;;;2.40;99.90;;;;;;5104113;28;20451;-79
2023/03/28 07:47:03;;;;;;;2.23;0.53;;;2.60;99.90;;;;;;5107066;28;20516;-79
2023/03/28 07:49:30;;;;;;;2.20;0.80;;;2.50;99.90;;;;;;5100821;28;20918;-79
2023/03/28 07:51:57;;;;;;;1.90;0.80;;;2.30;99.90;;;;;;5104834;28;20458;-78
2023/03/28 07:54:26;;;;;;;1.83;0.67;;;2.20;99.90;;;;;;5105133;28;20482;-78
2023/03/28 07:56:53;;;;;;;10.20;1.60;;;2.20;99.90;;;;;;5104399;28;21029;-77
2023/03/28 07:59:20;;;;;;;2.13;0.50;;;2.50;99.90;;;;;;5098909;28;20466;-78
2023/03/28 08:01:47;;;;;;;3.70;0.80;;;2.40;99.90;;;;;;5110146;28;20449;-77
2023/03/28 08:04:15;;;;;;;1.40;1.30;;;2.50;99.90;;;;;;5109558;28;20530;-77
2023/03/28 08:06:42;;;;;;;1.60;0.60;;;2.30;99.90;;;;;;5110885;28;20458;-77
2023/03/28 08:09:11;;;;;;;2.47;0.80;;;2.30;99.90;;;;;;5107425;28;20459;-78
2023/03/28 08:11:39;;;;;;;3.13;0.70;;;2.20;99.90;;;;;;5110595;28;20454;-78
2023/03/28 08:14:09;;;;;;;3.80;0.70;;;2.10;99.90;;;;;;5113971;28;20438;-79
2023/03/28 08:16:37;;;;;;;2.10;0.83;;;2.00;99.90;;;;;;5110291;28;20222;-78
2023/03/28 08:19:04;;;;;;;1.90;0.80;;;2.10;99.90;;;;;;5120726;27;20492;-78
2023/03/28 08:21:34;;;;;;;1.03;0.57;;;2.10;99.90;;;;;;5121881;28;20463;-78
2023/03/28 08:24:01;;;;;;;3.00;0.80;;;2.10;99.90;;;;;;5111355;28;20438;-79
2023/03/28 08:26:28;;;;;;;1.73;0.77;;;2.00;99.90;;;;;;5106717;28;20478;-78
2023/03/28 08:28:57;;;;;;;2.63;1.27;;;2.00;99.90;;;;;;5097406;28;20580;-78
2023/03/28 08:31:26;;;;;;;1.13;0.87;;;2.00;99.90;;;;;;5106313;28;20467;-77
2023/03/28 08:33:55;;;;;;;4.20;0.70;;;2.00;99.90;;;;;;5101855;28;20451;-77
2023/03/28 08:36:24;;;;;;;1.47;0.60;;;2.00;99.90;;;;;;5095612;28;21056;-78
2023/03/28 08:38:53;;;;;;;4.50;0.70;;;2.10;99.90;;;;;;5098527;28;20675;-78
2023/03/28 08:41:34;;;;;;;2.53;0.80;;;2.00;99.90;;;;;;5100165;28;20458;-78
2023/03/28 08:44:20;;;;;;;1.43;0.70;;;2.00;99.90;;;;;;5107268;28;20524;-79
2023/03/28 08:46:50;;;;;;;2.20;0.90;;;2.10;99.90;;;;;;5107323;28;20495;-80
2023/03/28 08:49:18;;;;;;;1.00;0.90;;;2.10;99.90;;;;;;5100477;28;20786;-79
2023/03/28 08:51:48;;;;;;;1.57;0.70;;;2.10;99.90;;;;;;5108191;28;20455;-79
2023/03/28 08:54:20;;;;;;;1.67;0.70;;;2.30;99.90;;;;;;5105675;28;20935;-79
2023/03/28 08:56:49;;;;;;;2.17;1.20;;;2.30;99.90;;;;;;5108103;28;20482;-81
2023/03/28 08:59:21;;;;;;;6.13;0.67;;;2.40;99.90;;;;;;5101519;28;20558;-79
2023/03/28 09:01:49;;;;;;;2.50;1.17;;;2.50;99.90;;;;;;5105862;28;20458;-78
2023/03/28 09:04:25;;;;;;;2.37;1.17;;;2.40;99.90;;;;;;5102459;28;20474;-78
2023/03/28 09:06:59;;;;;;;1.00;0.53;;;2.50;99.90;;;;;;5106053;28;20467;-80
2023/03/28 09:09:40;;;;;;;3.60;0.60;;;2.60;99.70;;;;;;5096467;28;20463;-78
2023/03/28 09:12:25;;;;;;;0.97;0.70;;;3.10;99.90;;;;;;5107985;28;20499;-80
2023/03/28 09:15:13;;;;;;;4.50;0.60;;;3.40;99.90;;;;;;5107806;28;20571;-79
2023/03/28 09:17:47;;;;;;;3.53;0.70;;;3.50;99.50;;;;;;5104535;28;20539;-81
2023/03/28 09:20:22;;;;;;;1.27;0.70;;;3.30;98.90;;;;;;5106152;28;20939;-79
2023/03/28 09:23:13;;;;;;;0.80;0.60;;;3.30;99.20;;;;;;5098859;28;21017;-80
2023/03/28 09:25:48;;;;;;;0.67;0.60;;;3.10;97.90;;;;;;5088229;28;20489;-80
2023/03/28 09:28:31;;;;;;;0.60;0.50;;;3.00;99.30;;;;;;5101599;28;20661;-78
2023/03/28 09:30:59;;;;;;;2.97;0.70;;;2.90;99.90;;;;;;5094260;28;20464;-78
2023/03/28 09:33:29;;;;;;;1.10;0.57;;;2.80;99.70;;;;;;5097133;28;20455;-78
2023/03/28 09:35:57;;;;;;;0.70;0.70;;;2.80;99.00;;;;;;5101892;28;20541;-79
2023/03/28 09:38:29;;;;;;;1.63;0.70;;;2.80;99.90;;;;;;5106728;28;20517;-77
2023/03/28 09:41:00;;;;;;;5.20;0.73;;;2.80;99.90;;;;;;5093460;28;20459;-79
2023/03/28 09:43:32;;;;;;;1.60;0.63;;;2.90;99.90;;;;;;5098857;28;20519;-77
2023/03/28 09:46:02;;;;;;;1.30;0.50;;;3.30;99.90;;;;;;5099590;28;20455;-79
2023/03/28 09:48:30;;;;;;;4.13;0.93;;;3.70;98.90;;;;;;5105716;28;20442;-78
2023/03/28 09:50:58;;;;;;;2.87;0.60;;;4.10;99.40;;;;;;5098536;28;20450;-79
2023/03/28 09:53:26;;;;;;;1.20;0.70;;;4.60;99.90;;;;;;5105443;28;20813;-78
2023/03/28 09:55:54;;;;;;;0.50;0.50;;;4.00;97.10;;;;;;5100278;28;20447;-79
2023/03/28 09:58:23;;;;;;;2.10;0.50;;;3.80;96.70;;;;;;5103287;28;20554;-78
2023/03/28 10:00:51;;;;;;;1.53;0.50;;;3.60;97.00;;;;;;5094367;28;20523;-79
2023/03/28 10:03:28;;;;;;;1.67;0.63;;;3.50;96.60;;;;;;5103670;28;20450;-78
2023/03/28 10:05:56;;;;;;;1.93;0.40;;;3.40;98.00;;;;;;5099150;28;20479;-77
2023/03/28 10:08:31;;;;;;;1.27;0.53;;;3.50;98.90;;;;;;5100815;28;20523;-78
2023/03/28 10:11:05;;;;;;;3.17;1.03;;;3.50;99.20;;;;;;5107104;28;20540;-78
2023/03/28 10:13:40;;;;;;;3.07;1.07;;;3.60;99.90;;;;;;5103374;28;20453;-79
2023/03/28 10:16:10;;;;;;;2.10;0.73;;;3.60;99.90;;;;;;5093946;28;20921;-78
2023/03/28 10:18:39;;;;;;;2.40;0.93;;;3.80;99.90;;;;;;5100968;28;20555;-79
2023/03/28 10:21:13;;;;;;;1.10;0.67;;;4.00;99.90;;;;;;5103279;28;20924;-78
2023/03/28 10:23:41;;;;;;;2.43;0.80;;;4.10;99.90;;;;;;5100023;28;20468;-80
2023/03/28 10:26:11;;;;;;;2.80;0.63;;;4.10;99.20;;;;;;5099764;28;20524;-78
2023/03/28 10:28:43;;;;;;;5.80;0.80;;;4.20;99.00;;;;;;5100670;28;20490;-78
2023/03/28 10:31:21;;;;;;;0.87;0.60;;;4.20;99.50;;;;;;5103913;27;20546;-79
2023/03/28 10:33:52;;;;;;;2.70;0.57;;;4.20;99.90;;;;;;5105532;28;20515;-79
2023/03/28 10:36:28;;;;;;;4.30;1.23;;;4.40;99.90;;;;;;5103003;28;20848;-78
2023/03/28 10:38:55;;;;;;;0.70;0.50;;;4.80;99.90;;;;;;5095996;28;20572;-78
2023/03/28 10:41:24;;;;;;;1.27;0.60;;;4.90;97.70;;;;;;5103901;28;20541;-79
2023/03/28 10:43:53;;;;;;;1.23;0.60;;;4.70;96.90;;;;;;5092581;28;20522;-77
2023/03/28 10:46:23;;;;;;;1.13;0.50;;;4.30;97.20;;;;;;5103302;28;20459;-78
2023/03/28 10:48:57;;;;;;;2.33;0.60;;;4.40;98.00;;;;;;5100323;28;20511;-78
2023/03/28 10:51:25;;;;;;;0.50;0.40;;;4.70;96.80;;;;;;5107334;28;20446;-80
2023/03/28 10:54:16;;;;;;;0.60;0.50;;;4.60;97.10;;;;;;5107953;28;20462;-78
2023/03/28 10:56:51;;;;;;;0.63;0.53;;;4.80;97.00;;;;;;5108790;28;20474;-77
2023/03/28 10:59:47;;;;;;;0.60;0.50;;;4.50;96.10;;;;;;5106007;28;20482;-79
2023/03/28 11:02:49;;;;;;;1.17;0.60;;;4.80;95.00;;;;;;5109108;28;20446;-79
2023/03/28 11:05:37;;;;;;;3.80;1.00;;;4.90;94.60;;;;;;5130877;27;20468;-79
2023/03/28 11:08:19;;;;;;;3.17;0.60;;;4.30;95.70;;;;;;5101335;28;20965;-80
2023/03/28 11:10:56;;;;;;;3.43;0.47;;;4.20;96.00;;;;;;5101873;28;21027;-78
2023/03/28 11:13:30;;;;;;;1.23;0.50;;;4.50;94.90;;;;;;5097674;28;20458;-78
2023/03/28 11:16:05;;;;;;;1.90;0.93;;;4.70;95.60;;;;;;5100454;28;20474;-78
2023/03/28 11:18:48;;;;;;;0.50;0.40;;;4.80;95.30;;;;;;5101175;28;20521;-81
2023/03/28 11:21:21;;;;;;;0.70;0.30;;;4.60;93.10;;;;;;5103828;28;21147;-80
2023/03/28 11:23:55;;;;;;;0.73;0.50;;;5.00;94.20;;;;;;5105193;28;20454;-76
2023/03/28 11:26:28;;;;;;;1.00;0.30;;;5.50;95.00;;;;;;5103560;28;20535;-79
2023/03/28 11:29:15;;;;;;;1.33;0.40;;;5.50;92.30;;;;;;5101163;28;20447;-77
2023/03/28 11:31:47;;;;;;;2.50;0.40;;;5.70;92.70;;;;;;5101144;28;20469;-78
2023/03/28 11:34:22;;;;;;;1.00;0.50;;;5.40;93.00;;;;;;5103266;28;20470;-75
2023/03/28 11:36:53;;;;;;;2.00;0.60;;;5.70;90.30;;;;;;5102680;28;21045;-76
2023/03/28 11:39:29;;;;;;;1.13;0.43;;;5.70;87.90;;;;;;5102408;28;20482;-76
2023/03/28 11:41:59;;;;;;;1.17;0.40;;;5.60;87.00;;;;;;5099199;28;20511;-76
2023/03/28 11:44:30;;;;;;;3.70;0.63;;;5.40;89.90;;;;;;5107003;28;20466;-79
2023/03/28 11:47:04;;;;;;;0.40;0.30;;;5.30;87.50;;;;;;5110084;28;20511;-76
2023/03/28 11:49:36;;;;;;;1.33;0.50;;;5.40;92.10;;;;;;5096845;28;20477;-77
2023/03/28 11:52:10;;;;;;;0.80;0.50;;;5.20;86.60;;;;;;5096426;28;20458;-78
2023/03/28 11:54:42;;;;;;;2.00;0.70;;;4.90;86.30;;;;;;5106273;28;21161;-77
2023/03/28 11:57:17;;;;;;;2.67;0.63;;;4.70;87.00;;;;;;5103947;28;20477;-77
2023/03/28 11:59:50;;;;;;;1.17;0.50;;;4.50;87.50;;;;;;5104257;28;20510;-77
2023/03/28 12:02:37;;;;;;;0.60;0.40;;;4.80;89.20;;;;;;5105509;28;20462;-77
2023/03/28 12:05:15;;;;;;;0.77;0.47;;;5.20;91.20;;;;;;5108906;28;20982;-76
2023/03/28 12:07:48;;;;;;;1.80;0.50;;;5.20;88.30;;;;;;5105421;28;21002;-77
2023/03/28 12:10:22;;;;;;;1.87;0.40;;;4.80;89.40;;;;;;5092727;28;20486;-76
2023/03/28 12:12:57;;;;;;;0.80;0.40;;;4.70;85.30;;;;;;5103820;28;21001;-77
2023/03/28 12:15:33;;;;;;;0.60;0.47;;;4.70;87.60;;;;;;5102122;28;20532;-76
2023/03/28 12:18:05;;;;;;;2.77;0.30;;;4.50;87.80;;;;;;5109523;28;20912;-76
2023/03/28 12:20:38;;;;;;;2.83;0.83;;;4.40;90.10;;;;;;5109275;28;20513;-76
2023/03/28 12:23:12;;;;;;;1.10;0.40;;;4.30;91.40;;;;;;5105296;28;20462;-78
2023/03/28 12:25:43;;;;;;;0.73;0.40;;;4.20;90.30;;;;;;5106702;28;20448;-79
2023/03/28 12:28:22;;;;;;;0.57;0.40;;;4.60;91.40;;;;;;5065849;28;21226;-77
2023/03/28 12:30:58;;;;;;;2.97;0.57;;;5.00;86.50;;;;;;5064548;28;20992;-76
2023/03/28 12:33:47;;;;;;;3.70;0.40;;;5.00;84.20;;;;;;5067807;28;20444;-77
2023/03/28 12:36:23;;;;;;;1.70;0.60;;;4.80;83.30;;;;;;5060611;28;20510;-76
2023/03/28 12:38:56;;;;;;;0.90;0.60;;;4.80;89.20;;;;;;5064161;28;21055;-77
2023/03/28 12:41:28;;;;;;;2.97;0.50;;;4.70;90.80;;;;;;5065947;28;20460;-80
2023/03/28 12:43:58;;;;;;;5.77;0.90;;;4.90;92.00;;;;;;5063397;28;20452;-79
2023/03/28 12:46:29;;;;;;;3.27;0.40;;;5.10;90.20;;;;;;5062203;28;20472;-80
2023/03/28 12:49:02;;;;;;;0.50;0.33;;;4.90;88.10;;;;;;5064110;28;20541;-78
2023/03/28 12:51:35;;;;;;;0.70;0.40;;;5.10;90.10;;;;;;5063291;28;20452;-79
2023/03/28 12:54:08;;;;;;;0.63;0.40;;;4.70;90.90;;;;;;5063851;28;20449;-80
2023/03/28 12:56:35;;;;;;;1.60;0.40;;;4.70;88.10;;;;;;5065305;28;20473;-80
2023/03/28 12:59:31;;;;;;;1.60;0.40;;;5.20;90.50;;;;;;5064637;28;20476;-81
2023/03/28 13:02:01;;;;;;;3.90;0.50;;;5.60;88.90;;;;;;5064312;28;20444;-77
2023/03/28 13:04:35;;;;;;;4.30;0.50;;;5.70;86.60;;;;;;5060145;28;20838;-76
2023/03/28 13:07:08;;;;;;;1.50;0.40;;;5.90;85.90;;;;;;5063851;28;20440;-78
2023/03/28 13:09:52;;;;;;;0.90;0.40;;;5.90;85.60;;;;;;5064842;28;20506;-78
2023/03/28 13:12:38;;;;;;;0.60;0.40;;;5.60;82.90;;;;;;5066368;28;20571;-78
2023/03/28 13:15:31;;;;;;;1.17;0.60;;;5.40;84.40;;;;;;5064740;28;20444;-78
2023/03/28 13:18:31;;;;;;;0.80;0.80;;;5.70;85.90;;;;;;5069932;28;20561;-78